sensor_id;sensor_type;location;lat;lon;timestamp;P1;durP1;ratioP1;P2;durP2;ratioP2
30398;SDS011;17195;50.838;7.214;2023-02-17T00:01:58;15.70;;;11.57;;
30398;SDS011;17195;50.838;7.214;2023-02-17T00:04:26;16.95;;;11.98;;
30398;SDS011;17195;50.838;7.214;2023-02-17T00:06:53;16.48;;;11.10;;
30398;SDS011;17195;50.838;7.214;2023-02-17T00:09:18;17.58;;;11.85;;
30398;SDS011;17195;50.838;7.214;2023-02-17T00:11:44;16.50;;;11.75;;
30398;SDS011;17195;50.838;7.214;2023-02-17T00:14:11;16.77;;;11.50;;
30398;SDS011;17195;50.838;7.214;2023-02-17T00:16:37;13.90;;;10.45;;
30398;SDS011;17195;50.838;7.214;2023-02-17T00:19:03;15.30;;;11.13;;
30398;SDS011;17195;50.838;7.214;2023-02-17T00:21:47;15.60;;;10.68;;
30398;SDS011;17195;50.838;7.214;2023-02-17T00:24:13;14.90;;;10.70;;
30398;SDS011;17195;50.838;7.214;2023-02-17T00:26:39;14.02;;;11.02;;
30398;SDS011;17195;50.838;7.214;2023-02-17T00:29:04;14.15;;;10.43;;
30398;SDS011;17195;50.838;7.214;2023-02-17T00:31:30;13.85;;;10.20;;
30398;SDS011;17195;50.838;7.214;2023-02-17T00:33:55;14.02;;;10.30;;
30398;SDS011;17195;50.838;7.214;2023-02-17T00:36:21;15.90;;;10.52;;
30398;SDS011;17195;50.838;7.214;2023-02-17T00:38:47;15.15;;;10.43;;
30398;SDS011;17195;50.838;7.214;2023-02-17T00:41:13;14.02;;;9.38;;
30398;SDS011;17195;50.838;7.214;2023-02-17T00:43:38;13.15;;;9.68;;
30398;SDS011;17195;50.838;7.214;2023-02-17T00:46:04;14.18;;;9.73;;
30398;SDS011;17195;50.838;7.214;2023-02-17T00:48:30;13.45;;;9.88;;
30398;SDS011;17195;50.838;7.214;2023-02-17T00:50:56;14.40;;;9.40;;
30398;SDS011;17195;50.838;7.214;2023-02-17T00:53:21;12.80;;;9.13;;
30398;SDS011;17195;50.838;7.214;2023-02-17T00:55:47;12.45;;;8.85;;
30398;SDS011;17195;50.838;7.214;2023-02-17T00:58:14;13.10;;;8.90;;
30398;SDS011;17195;50.838;7.214;2023-02-17T01:00:39;12.20;;;8.88;;
30398;SDS011;17195;50.838;7.214;2023-02-17T01:03:05;13.35;;;8.73;;
30398;SDS011;17195;50.838;7.214;2023-02-17T01:05:31;12.70;;;8.98;;
30398;SDS011;17195;50.838;7.214;2023-02-17T01:07:57;12.88;;;8.93;;
30398;SDS011;17195;50.838;7.214;2023-02-17T01:10:22;10.63;;;8.25;;
30398;SDS011;17195;50.838;7.214;2023-02-17T01:12:48;24.88;;;13.00;;
30398;SDS011;17195;50.838;7.214;2023-02-17T01:15:14;18.42;;;12.18;;
30398;SDS011;17195;50.838;7.214;2023-02-17T01:17:39;20.38;;;11.40;;
30398;SDS011;17195;50.838;7.214;2023-02-17T01:20:05;23.58;;;12.80;;
30398;SDS011;17195;50.838;7.214;2023-02-17T01:22:31;16.65;;;10.73;;
30398;SDS011;17195;50.838;7.214;2023-02-17T01:24:57;14.30;;;9.45;;
30398;SDS011;17195;50.838;7.214;2023-02-17T01:27:23;13.70;;;9.35;;
30398;SDS011;17195;50.838;7.214;2023-02-17T01:29:48;12.52;;;9.48;;
30398;SDS011;17195;50.838;7.214;2023-02-17T01:32:14;11.88;;;8.35;;
30398;SDS011;17195;50.838;7.214;2023-02-17T01:34:39;17.58;;;9.40;;
30398;SDS011;17195;50.838;7.214;2023-02-17T01:37:05;11.23;;;8.02;;
30398;SDS011;17195;50.838;7.214;2023-02-17T01:39:31;11.82;;;8.23;;
30398;SDS011;17195;50.838;7.214;2023-02-17T01:41:56;11.57;;;8.25;;
30398;SDS011;17195;50.838;7.214;2023-02-17T01:44:23;10.77;;;7.90;;
30398;SDS011;17195;50.838;7.214;2023-02-17T01:46:50;12.18;;;8.40;;
30398;SDS011;17195;50.838;7.214;2023-02-17T01:49:19;11.77;;;7.90;;
30398;SDS011;17195;50.838;7.214;2023-02-17T01:54:38;11.25;;;7.97;;
30398;SDS011;17195;50.838;7.214;2023-02-17T01:57:14;9.70;;;7.10;;
30398;SDS011;17195;50.838;7.214;2023-02-17T01:59:43;11.07;;;7.45;;
30398;SDS011;17195;50.838;7.214;2023-02-17T02:02:09;11.07;;;6.85;;
30398;SDS011;17195;50.838;7.214;2023-02-17T02:04:36;10.55;;;7.00;;
30398;SDS011;17195;50.838;7.214;2023-02-17T02:07:05;10.60;;;6.95;;
30398;SDS011;17195;50.838;7.214;2023-02-17T02:09:37;11.27;;;6.95;;
30398;SDS011;17195;50.838;7.214;2023-02-17T02:12:17;11.93;;;7.22;;
30398;SDS011;17195;50.838;7.214;2023-02-17T02:14:49;10.45;;;6.78;;
30398;SDS011;17195;50.838;7.214;2023-02-17T02:17:28;9.32;;;6.55;;
30398;SDS011;17195;50.838;7.214;2023-02-17T02:26:06;8.55;;;6.20;;
30398;SDS011;17195;50.838;7.214;2023-02-17T02:29:01;9.88;;;6.20;;
30398;SDS011;17195;50.838;7.214;2023-02-17T02:36:55;8.90;;;7.03;;
30398;SDS011;17195;50.838;7.214;2023-02-17T02:39:34;7.43;;;5.55;;
30398;SDS011;17195;50.838;7.214;2023-02-17T02:42:08;9.90;;;6.00;;
30398;SDS011;17195;50.838;7.214;2023-02-17T02:44:38;9.90;;;6.55;;
30398;SDS011;17195;50.838;7.214;2023-02-17T02:47:05;9.63;;;6.55;;
30398;SDS011;17195;50.838;7.214;2023-02-17T02:49:51;9.32;;;6.03;;
30398;SDS011;17195;50.838;7.214;2023-02-17T02:52:29;6.88;;;6.03;;
30398;SDS011;17195;50.838;7.214;2023-02-17T02:55:02;7.53;;;5.60;;
30398;SDS011;17195;50.838;7.214;2023-02-17T02:57:50;8.18;;;6.00;;
30398;SDS011;17195;50.838;7.214;2023-02-17T03:00:27;7.53;;;5.55;;
30398;SDS011;17195;50.838;7.214;2023-02-17T03:05:44;8.23;;;5.60;;
30398;SDS011;17195;50.838;7.214;2023-02-17T03:08:25;7.82;;;5.55;;
30398;SDS011;17195;50.838;7.214;2023-02-17T03:10:59;8.82;;;5.65;;
30398;SDS011;17195;50.838;7.214;2023-02-17T03:13:25;7.28;;;5.40;;
30398;SDS011;17195;50.838;7.214;2023-02-17T03:15:50;7.68;;;5.53;;
30398;SDS011;17195;50.838;7.214;2023-02-17T03:18:16;6.72;;;4.60;;
30398;SDS011;17195;50.838;7.214;2023-02-17T03:20:48;7.57;;;5.50;;
30398;SDS011;17195;50.838;7.214;2023-02-17T03:23:24;7.55;;;5.00;;
30398;SDS011;17195;50.838;7.214;2023-02-17T03:25:49;7.20;;;5.28;;
30398;SDS011;17195;50.838;7.214;2023-02-17T03:28:15;9.90;;;5.75;;
30398;SDS011;17195;50.838;7.214;2023-02-17T03:30:40;7.00;;;5.13;;
30398;SDS011;17195;50.838;7.214;2023-02-17T03:33:06;7.57;;;5.05;;
30398;SDS011;17195;50.838;7.214;2023-02-17T03:35:32;6.50;;;4.43;;
30398;SDS011;17195;50.838;7.214;2023-02-17T03:37:58;5.32;;;4.30;;
30398;SDS011;17195;50.838;7.214;2023-02-17T03:40:23;8.70;;;4.80;;
30398;SDS011;17195;50.838;7.214;2023-02-17T03:42:49;7.53;;;4.75;;
30398;SDS011;17195;50.838;7.214;2023-02-17T03:45:14;5.88;;;4.38;;
30398;SDS011;17195;50.838;7.214;2023-02-17T03:47:40;5.70;;;4.38;;
30398;SDS011;17195;50.838;7.214;2023-02-17T03:50:05;5.65;;;4.55;;
30398;SDS011;17195;50.838;7.214;2023-02-17T03:52:31;6.40;;;4.55;;
30398;SDS011;17195;50.838;7.214;2023-02-17T03:54:57;6.20;;;4.10;;
30398;SDS011;17195;50.838;7.214;2023-02-17T03:57:23;5.72;;;4.13;;
30398;SDS011;17195;50.838;7.214;2023-02-17T03:59:48;6.05;;;4.20;;
30398;SDS011;17195;50.838;7.214;2023-02-17T04:02:14;7.47;;;4.25;;
30398;SDS011;17195;50.838;7.214;2023-02-17T04:04:39;5.60;;;4.43;;
30398;SDS011;17195;50.838;7.214;2023-02-17T04:07:05;6.70;;;4.50;;
30398;SDS011;17195;50.838;7.214;2023-02-17T04:09:30;6.07;;;4.75;;
30398;SDS011;17195;50.838;7.214;2023-02-17T04:11:56;6.75;;;5.10;;
30398;SDS011;17195;50.838;7.214;2023-02-17T04:14:21;6.63;;;4.90;;
30398;SDS011;17195;50.838;7.214;2023-02-17T04:16:47;7.20;;;4.35;;
30398;SDS011;17195;50.838;7.214;2023-02-17T04:19:12;6.57;;;4.75;;
30398;SDS011;17195;50.838;7.214;2023-02-17T04:21:38;7.97;;;4.75;;
30398;SDS011;17195;50.838;7.214;2023-02-17T04:24:04;9.23;;;5.40;;
30398;SDS011;17195;50.838;7.214;2023-02-17T04:26:29;5.93;;;5.00;;
30398;SDS011;17195;50.838;7.214;2023-02-17T04:28:55;6.82;;;4.55;;
30398;SDS011;17195;50.838;7.214;2023-02-17T04:31:21;6.18;;;4.88;;
30398;SDS011;17195;50.838;7.214;2023-02-17T04:33:47;6.53;;;4.60;;
30398;SDS011;17195;50.838;7.214;2023-02-17T04:36:12;5.47;;;4.30;;
30398;SDS011;17195;50.838;7.214;2023-02-17T04:38:38;6.53;;;4.78;;
30398;SDS011;17195;50.838;7.214;2023-02-17T04:41:04;6.55;;;4.43;;
30398;SDS011;17195;50.838;7.214;2023-02-17T04:43:30;7.03;;;4.93;;
30398;SDS011;17195;50.838;7.214;2023-02-17T04:45:56;6.00;;;4.80;;
30398;SDS011;17195;50.838;7.214;2023-02-17T04:48:21;5.65;;;4.80;;
30398;SDS011;17195;50.838;7.214;2023-02-17T04:50:47;5.75;;;4.70;;
30398;SDS011;17195;50.838;7.214;2023-02-17T04:53:13;5.95;;;4.28;;
30398;SDS011;17195;50.838;7.214;2023-02-17T04:55:39;6.57;;;4.75;;
30398;SDS011;17195;50.838;7.214;2023-02-17T04:58:05;5.65;;;4.15;;
30398;SDS011;17195;50.838;7.214;2023-02-17T05:00:30;5.10;;;4.55;;
30398;SDS011;17195;50.838;7.214;2023-02-17T05:02:56;4.65;;;3.97;;
30398;SDS011;17195;50.838;7.214;2023-02-17T05:05:22;5.30;;;4.03;;
30398;SDS011;17195;50.838;7.214;2023-02-17T05:07:48;7.55;;;4.10;;
30398;SDS011;17195;50.838;7.214;2023-02-17T05:10:14;6.10;;;4.45;;
30398;SDS011;17195;50.838;7.214;2023-02-17T05:12:40;5.80;;;4.60;;
30398;SDS011;17195;50.838;7.214;2023-02-17T05:15:07;4.88;;;4.00;;
30398;SDS011;17195;50.838;7.214;2023-02-17T05:17:33;4.78;;;4.07;;
30398;SDS011;17195;50.838;7.214;2023-02-17T05:19:59;6.03;;;4.32;;
30398;SDS011;17195;50.838;7.214;2023-02-17T05:22:25;4.40;;;3.80;;
30398;SDS011;17195;50.838;7.214;2023-02-17T05:24:51;4.95;;;4.10;;
30398;SDS011;17195;50.838;7.214;2023-02-17T05:27:17;6.45;;;4.38;;
30398;SDS011;17195;50.838;7.214;2023-02-17T05:29:42;6.22;;;4.22;;
30398;SDS011;17195;50.838;7.214;2023-02-17T05:32:08;5.80;;;4.40;;
30398;SDS011;17195;50.838;7.214;2023-02-17T05:34:34;6.65;;;4.25;;
30398;SDS011;17195;50.838;7.214;2023-02-17T05:37:00;6.68;;;3.92;;
30398;SDS011;17195;50.838;7.214;2023-02-17T05:39:26;5.78;;;4.50;;
30398;SDS011;17195;50.838;7.214;2023-02-17T05:41:51;5.05;;;4.45;;
30398;SDS011;17195;50.838;7.214;2023-02-17T05:44:17;6.07;;;4.32;;
30398;SDS011;17195;50.838;7.214;2023-02-17T05:46:42;5.13;;;4.00;;
30398;SDS011;17195;50.838;7.214;2023-02-17T05:49:08;6.20;;;4.43;;
30398;SDS011;17195;50.838;7.214;2023-02-17T05:51:34;6.18;;;4.35;;
30398;SDS011;17195;50.838;7.214;2023-02-17T05:53:59;6.20;;;4.43;;
30398;SDS011;17195;50.838;7.214;2023-02-17T05:56:25;7.40;;;4.38;;
30398;SDS011;17195;50.838;7.214;2023-02-17T05:58:51;7.15;;;4.72;;
30398;SDS011;17195;50.838;7.214;2023-02-17T06:01:16;5.35;;;4.40;;
30398;SDS011;17195;50.838;7.214;2023-02-17T06:03:42;6.68;;;4.78;;
30398;SDS011;17195;50.838;7.214;2023-02-17T06:06:07;5.30;;;4.20;;
30398;SDS011;17195;50.838;7.214;2023-02-17T06:08:33;5.60;;;3.92;;
30398;SDS011;17195;50.838;7.214;2023-02-17T06:10:59;6.07;;;4.65;;
30398;SDS011;17195;50.838;7.214;2023-02-17T06:13:25;5.95;;;4.10;;
30398;SDS011;17195;50.838;7.214;2023-02-17T06:15:50;5.50;;;3.90;;
30398;SDS011;17195;50.838;7.214;2023-02-17T06:18:16;5.00;;;3.83;;
30398;SDS011;17195;50.838;7.214;2023-02-17T06:20:41;4.28;;;3.67;;
30398;SDS011;17195;50.838;7.214;2023-02-17T06:23:07;7.05;;;4.65;;
30398;SDS011;17195;50.838;7.214;2023-02-17T06:25:33;4.82;;;4.03;;
30398;SDS011;17195;50.838;7.214;2023-02-17T06:27:58;5.45;;;4.05;;
30398;SDS011;17195;50.838;7.214;2023-02-17T06:30:24;4.38;;;3.80;;
30398;SDS011;17195;50.838;7.214;2023-02-17T06:32:49;6.50;;;4.40;;
30398;SDS011;17195;50.838;7.214;2023-02-17T06:35:15;7.35;;;5.30;;
30398;SDS011;17195;50.838;7.214;2023-02-17T06:37:41;8.27;;;5.65;;
30398;SDS011;17195;50.838;7.214;2023-02-17T06:40:07;5.80;;;4.22;;
30398;SDS011;17195;50.838;7.214;2023-02-17T06:42:33;42.92;;;35.13;;
30398;SDS011;17195;50.838;7.214;2023-02-17T06:44:59;76.03;;;56.97;;
30398;SDS011;17195;50.838;7.214;2023-02-17T06:47:27;14.00;;;11.93;;
30398;SDS011;17195;50.838;7.214;2023-02-17T06:49:52;6.53;;;5.65;;
30398;SDS011;17195;50.838;7.214;2023-02-17T06:52:18;7.10;;;6.40;;
30398;SDS011;17195;50.838;7.214;2023-02-17T06:54:44;8.38;;;5.35;;
30398;SDS011;17195;50.838;7.214;2023-02-17T06:57:11;4.80;;;4.35;;
30398;SDS011;17195;50.838;7.214;2023-02-17T06:59:36;6.95;;;6.10;;
30398;SDS011;17195;50.838;7.214;2023-02-17T07:02:02;5.93;;;4.35;;
30398;SDS011;17195;50.838;7.214;2023-02-17T07:04:27;5.50;;;4.55;;
30398;SDS011;17195;50.838;7.214;2023-02-17T07:06:53;6.43;;;4.55;;
30398;SDS011;17195;50.838;7.214;2023-02-17T07:09:19;4.68;;;4.18;;
30398;SDS011;17195;50.838;7.214;2023-02-17T07:11:44;5.28;;;3.75;;
30398;SDS011;17195;50.838;7.214;2023-02-17T07:14:10;5.28;;;4.60;;
30398;SDS011;17195;50.838;7.214;2023-02-17T07:16:35;5.68;;;4.60;;
30398;SDS011;17195;50.838;7.214;2023-02-17T07:19:01;7.15;;;4.78;;
30398;SDS011;17195;50.838;7.214;2023-02-17T07:21:26;5.90;;;4.35;;
30398;SDS011;17195;50.838;7.214;2023-02-17T07:23:52;5.30;;;4.50;;
30398;SDS011;17195;50.838;7.214;2023-02-17T07:26:17;4.95;;;3.83;;
30398;SDS011;17195;50.838;7.214;2023-02-17T07:28:43;5.70;;;4.10;;
30398;SDS011;17195;50.838;7.214;2023-02-17T07:31:10;4.72;;;4.20;;
30398;SDS011;17195;50.838;7.214;2023-02-17T07:33:37;4.70;;;3.70;;
30398;SDS011;17195;50.838;7.214;2023-02-17T07:36:07;5.00;;;3.50;;
30398;SDS011;17195;50.838;7.214;2023-02-17T07:38:35;6.15;;;3.53;;
30398;SDS011;17195;50.838;7.214;2023-02-17T07:41:08;4.82;;;3.88;;
30398;SDS011;17195;50.838;7.214;2023-02-17T07:46:02;5.68;;;3.95;;
30398;SDS011;17195;50.838;7.214;2023-02-17T07:48:29;6.10;;;3.80;;
30398;SDS011;17195;50.838;7.214;2023-02-17T07:50:54;5.28;;;4.20;;
30398;SDS011;17195;50.838;7.214;2023-02-17T07:53:20;5.85;;;3.97;;
30398;SDS011;17195;50.838;7.214;2023-02-17T07:55:45;6.50;;;4.22;;
30398;SDS011;17195;50.838;7.214;2023-02-17T07:58:11;7.72;;;4.43;;
30398;SDS011;17195;50.838;7.214;2023-02-17T08:00:37;5.47;;;4.13;;
30398;SDS011;17195;50.838;7.214;2023-02-17T08:03:02;5.30;;;3.75;;
30398;SDS011;17195;50.838;7.214;2023-02-17T08:05:28;4.72;;;3.55;;
30398;SDS011;17195;50.838;7.214;2023-02-17T08:07:53;7.43;;;4.20;;
30398;SDS011;17195;50.838;7.214;2023-02-17T08:10:37;5.18;;;3.70;;
30398;SDS011;17195;50.838;7.214;2023-02-17T08:13:22;4.65;;;3.92;;
30398;SDS011;17195;50.838;7.214;2023-02-17T08:15:48;8.55;;;4.20;;
30398;SDS011;17195;50.838;7.214;2023-02-17T08:18:14;6.15;;;3.88;;
30398;SDS011;17195;50.838;7.214;2023-02-17T08:20:39;5.45;;;4.07;;
30398;SDS011;17195;50.838;7.214;2023-02-17T08:23:05;4.40;;;3.95;;
30398;SDS011;17195;50.838;7.214;2023-02-17T08:25:31;8.13;;;3.70;;
30398;SDS011;17195;50.838;7.214;2023-02-17T08:27:58;4.78;;;3.70;;
30398;SDS011;17195;50.838;7.214;2023-02-17T08:30:24;6.97;;;3.80;;
30398;SDS011;17195;50.838;7.214;2023-02-17T08:32:50;6.18;;;3.70;;
30398;SDS011;17195;50.838;7.214;2023-02-17T08:35:15;5.03;;;3.63;;
30398;SDS011;17195;50.838;7.214;2023-02-17T08:37:43;8.93;;;3.55;;
30398;SDS011;17195;50.838;7.214;2023-02-17T08:40:09;6.05;;;3.97;;
30398;SDS011;17195;50.838;7.214;2023-02-17T08:42:35;7.28;;;3.97;;
30398;SDS011;17195;50.838;7.214;2023-02-17T08:45:01;5.43;;;3.85;;
30398;SDS011;17195;50.838;7.214;2023-02-17T08:47:27;5.55;;;4.07;;
30398;SDS011;17195;50.838;7.214;2023-02-17T08:49:53;4.72;;;3.33;;
30398;SDS011;17195;50.838;7.214;2023-02-17T08:52:20;6.25;;;4.07;;
30398;SDS011;17195;50.838;7.214;2023-02-17T08:54:45;6.15;;;4.60;;
30398;SDS011;17195;50.838;7.214;2023-02-17T08:57:11;7.57;;;4.68;;
30398;SDS011;17195;50.838;7.214;2023-02-17T08:59:36;8.07;;;4.75;;
30398;SDS011;17195;50.838;7.214;2023-02-17T09:02:02;4.30;;;3.53;;
30398;SDS011;17195;50.838;7.214;2023-02-17T09:04:28;4.80;;;4.22;;
30398;SDS011;17195;50.838;7.214;2023-02-17T09:06:53;5.30;;;3.88;;
30398;SDS011;17195;50.838;7.214;2023-02-17T09:09:23;4.32;;;3.70;;
30398;SDS011;17195;50.838;7.214;2023-02-17T09:11:53;3.70;;;3.17;;
30398;SDS011;17195;50.838;7.214;2023-02-17T09:14:23;5.10;;;3.05;;
30398;SDS011;17195;50.838;7.214;2023-02-17T09:16:49;4.95;;;3.38;;
30398;SDS011;17195;50.838;7.214;2023-02-17T09:19:15;5.13;;;3.45;;
30398;SDS011;17195;50.838;7.214;2023-02-17T09:21:41;3.15;;;2.85;;
30398;SDS011;17195;50.838;7.214;2023-02-17T09:24:06;4.72;;;3.38;;
30398;SDS011;17195;50.838;7.214;2023-02-17T09:26:32;8.05;;;6.38;;
30398;SDS011;17195;50.838;7.214;2023-02-17T09:29:02;4.78;;;3.60;;
30398;SDS011;17195;50.838;7.214;2023-02-17T09:31:28;7.20;;;3.15;;
30398;SDS011;17195;50.838;7.214;2023-02-17T09:33:54;5.03;;;3.10;;
30398;SDS011;17195;50.838;7.214;2023-02-17T09:36:26;4.15;;;3.35;;
30398;SDS011;17195;50.838;7.214;2023-02-17T09:38:54;3.22;;;2.50;;
30398;SDS011;17195;50.838;7.214;2023-02-17T09:41:22;3.40;;;2.53;;
30398;SDS011;17195;50.838;7.214;2023-02-17T09:43:50;5.05;;;4.20;;
30398;SDS011;17195;50.838;7.214;2023-02-17T09:46:28;5.90;;;4.38;;
30398;SDS011;17195;50.838;7.214;2023-02-17T09:48:58;3.20;;;2.63;;
30398;SDS011;17195;50.838;7.214;2023-02-17T09:51:48;3.13;;;2.63;;
30398;SDS011;17195;50.838;7.214;2023-02-17T09:54:26;7.85;;;6.00;;
30398;SDS011;17195;50.838;7.214;2023-02-17T09:57:01;2.42;;;1.67;;
30398;SDS011;17195;50.838;7.214;2023-02-17T09:59:39;16.08;;;8.57;;
30398;SDS011;17195;50.838;7.214;2023-02-17T10:02:13;3.40;;;2.95;;
30398;SDS011;17195;50.838;7.214;2023-02-17T10:04:47;4.95;;;3.10;;
30398;SDS011;17195;50.838;7.214;2023-02-17T10:07:19;19.98;;;10.40;;
30398;SDS011;17195;50.838;7.214;2023-02-17T10:10:02;4.43;;;1.98;;
30398;SDS011;17195;50.838;7.214;2023-02-17T10:12:35;10.23;;;4.65;;
30398;SDS011;17195;50.838;7.214;2023-02-17T10:15:09;8.27;;;4.45;;
30398;SDS011;17195;50.838;7.214;2023-02-17T10:17:47;6.88;;;3.58;;
30398;SDS011;17195;50.838;7.214;2023-02-17T10:20:35;4.05;;;2.83;;
30398;SDS011;17195;50.838;7.214;2023-02-17T10:28:17;2.42;;;1.60;;
30398;SDS011;17195;50.838;7.214;2023-02-17T10:30:54;3.03;;;2.28;;
30398;SDS011;17195;50.838;7.214;2023-02-17T10:33:28;1.58;;;1.23;;
30398;SDS011;17195;50.838;7.214;2023-02-17T10:36:13;1.63;;;1.38;;
30398;SDS011;17195;50.838;7.214;2023-02-17T10:39:00;3.10;;;1.40;;
30398;SDS011;17195;50.838;7.214;2023-02-17T10:41:33;2.13;;;1.35;;
30398;SDS011;17195;50.838;7.214;2023-02-17T10:44:03;1.25;;;0.95;;
30398;SDS011;17195;50.838;7.214;2023-02-17T10:46:35;1.30;;;1.20;;
30398;SDS011;17195;50.838;7.214;2023-02-17T10:49:04;5.03;;;1.05;;
30398;SDS011;17195;50.838;7.214;2023-02-17T10:51:30;1.67;;;1.15;;
30398;SDS011;17195;50.838;7.214;2023-02-17T10:54:01;3.00;;;1.00;;
30398;SDS011;17195;50.838;7.214;2023-02-17T10:56:40;0.80;;;0.65;;
30398;SDS011;17195;50.838;7.214;2023-02-17T10:59:17;2.50;;;0.98;;
30398;SDS011;17195;50.838;7.214;2023-02-17T11:01:47;1.33;;;0.80;;
30398;SDS011;17195;50.838;7.214;2023-02-17T11:04:13;1.20;;;1.08;;
30398;SDS011;17195;50.838;7.214;2023-02-17T11:06:49;2.65;;;1.10;;
30398;SDS011;17195;50.838;7.214;2023-02-17T11:11:56;1.48;;;0.85;;
30398;SDS011;17195;50.838;7.214;2023-02-17T11:14:35;1.85;;;0.90;;
30398;SDS011;17195;50.838;7.214;2023-02-17T11:17:12;2.28;;;0.75;;
30398;SDS011;17195;50.838;7.214;2023-02-17T11:19:52;1.45;;;0.43;;
30398;SDS011;17195;50.838;7.214;2023-02-17T11:22:33;2.13;;;0.65;;
30398;SDS011;17195;50.838;7.214;2023-02-17T11:25:04;1.20;;;0.55;;
30398;SDS011;17195;50.838;7.214;2023-02-17T11:27:56;2.83;;;0.73;;
30398;SDS011;17195;50.838;7.214;2023-02-17T11:30:27;1.25;;;1.00;;
30398;SDS011;17195;50.838;7.214;2023-02-17T11:32:55;1.63;;;0.50;;
30398;SDS011;17195;50.838;7.214;2023-02-17T11:35:25;1.20;;;0.70;;
30398;SDS011;17195;50.838;7.214;2023-02-17T11:38:32;1.10;;;0.50;;
30398;SDS011;17195;50.838;7.214;2023-02-17T11:41:01;0.52;;;0.40;;
30398;SDS011;17195;50.838;7.214;2023-02-17T11:43:32;1.58;;;0.80;;
30398;SDS011;17195;50.838;7.214;2023-02-17T11:52:02;1.67;;;0.50;;
30398;SDS011;17195;50.838;7.214;2023-02-17T11:54:39;1.63;;;0.60;;
30398;SDS011;17195;50.838;7.214;2023-02-17T12:21:19;1.33;;;0.50;;
30398;SDS011;17195;50.838;7.214;2023-02-17T12:35:33;0.70;;;0.60;;
30398;SDS011;17195;50.838;7.214;2023-02-17T12:38:16;1.60;;;0.80;;
30398;SDS011;17195;50.838;7.214;2023-02-17T12:43:35;0.80;;;0.45;;
30398;SDS011;17195;50.838;7.214;2023-02-17T12:46:14;2.05;;;0.50;;
30398;SDS011;17195;50.838;7.214;2023-02-17T12:51:43;2.17;;;0.47;;
30398;SDS011;17195;50.838;7.214;2023-02-17T12:56:47;3.83;;;0.70;;
30398;SDS011;17195;50.838;7.214;2023-02-17T12:59:18;1.13;;;0.50;;
30398;SDS011;17195;50.838;7.214;2023-02-17T13:04:33;0.98;;;0.68;;
30398;SDS011;17195;50.838;7.214;2023-02-17T13:07:03;1.50;;;0.60;;
30398;SDS011;17195;50.838;7.214;2023-02-17T13:09:39;1.15;;;0.68;;
30398;SDS011;17195;50.838;7.214;2023-02-17T13:12:09;1.90;;;0.50;;
30398;SDS011;17195;50.838;7.214;2023-02-17T13:14:39;2.30;;;0.50;;
30398;SDS011;17195;50.838;7.214;2023-02-17T13:22:36;1.25;;;0.63;;
30398;SDS011;17195;50.838;7.214;2023-02-17T13:25:03;2.65;;;0.70;;
30398;SDS011;17195;50.838;7.214;2023-02-17T13:27:31;3.08;;;0.52;;
30398;SDS011;17195;50.838;7.214;2023-02-17T13:33:02;2.15;;;0.70;;
30398;SDS011;17195;50.838;7.214;2023-02-17T13:35:31;0.75;;;0.50;;
30398;SDS011;17195;50.838;7.214;2023-02-17T13:38:02;1.27;;;0.60;;
30398;SDS011;17195;50.838;7.214;2023-02-17T13:42:56;1.92;;;0.88;;
30398;SDS011;17195;50.838;7.214;2023-02-17T13:45:55;3.67;;;1.20;;
30398;SDS011;17195;50.838;7.214;2023-02-17T13:48:24;2.00;;;1.40;;
30398;SDS011;17195;50.838;7.214;2023-02-17T13:50:56;1.70;;;0.90;;
30398;SDS011;17195;50.838;7.214;2023-02-17T13:53:35;3.15;;;0.90;;
30398;SDS011;17195;50.838;7.214;2023-02-17T13:59:12;1.40;;;0.77;;
30398;SDS011;17195;50.838;7.214;2023-02-17T14:01:42;2.28;;;1.00;;
30398;SDS011;17195;50.838;7.214;2023-02-17T14:04:29;0.75;;;0.60;;
30398;SDS011;17195;50.838;7.214;2023-02-17T14:09:26;3.53;;;1.00;;
30398;SDS011;17195;50.838;7.214;2023-02-17T14:11:56;6.13;;;0.80;;
30398;SDS011;17195;50.838;7.214;2023-02-17T14:14:27;5.57;;;0.90;;
30398;SDS011;17195;50.838;7.214;2023-02-17T14:16:56;1.27;;;1.00;;
30398;SDS011;17195;50.838;7.214;2023-02-17T14:19:44;2.50;;;0.90;;
30398;SDS011;17195;50.838;7.214;2023-02-17T14:22:25;1.50;;;1.00;;
30398;SDS011;17195;50.838;7.214;2023-02-17T14:25:06;1.45;;;1.15;;
30398;SDS011;17195;50.838;7.214;2023-02-17T14:30:14;4.40;;;1.08;;
30398;SDS011;17195;50.838;7.214;2023-02-17T14:32:59;1.58;;;1.10;;
30398;SDS011;17195;50.838;7.214;2023-02-17T14:40:47;4.10;;;1.30;;
30398;SDS011;17195;50.838;7.214;2023-02-17T14:43:13;2.65;;;1.10;;
30398;SDS011;17195;50.838;7.214;2023-02-17T14:45:38;1.50;;;1.30;;
30398;SDS011;17195;50.838;7.214;2023-02-17T14:48:04;3.35;;;1.42;;
30398;SDS011;17195;50.838;7.214;2023-02-17T14:50:33;2.20;;;1.30;;
30398;SDS011;17195;50.838;7.214;2023-02-17T14:53:28;4.22;;;1.50;;
30398;SDS011;17195;50.838;7.214;2023-02-17T14:56:07;2.22;;;1.33;;
30398;SDS011;17195;50.838;7.214;2023-02-17T14:58:37;1.73;;;1.42;;
30398;SDS011;17195;50.838;7.214;2023-02-17T15:01:03;2.15;;;1.33;;
30398;SDS011;17195;50.838;7.214;2023-02-17T15:03:29;3.75;;;2.00;;
30398;SDS011;17195;50.838;7.214;2023-02-17T15:05:55;4.28;;;1.33;;
30398;SDS011;17195;50.838;7.214;2023-02-17T15:08:24;4.47;;;1.88;;
30398;SDS011;17195;50.838;7.214;2023-02-17T15:10:57;3.80;;;1.73;;
30398;SDS011;17195;50.838;7.214;2023-02-17T15:13:23;2.70;;;1.52;;
30398;SDS011;17195;50.838;7.214;2023-02-17T15:15:48;3.97;;;1.67;;
30398;SDS011;17195;50.838;7.214;2023-02-17T15:18:15;1.75;;;1.65;;
30398;SDS011;17195;50.838;7.214;2023-02-17T15:20:43;3.05;;;2.05;;
30398;SDS011;17195;50.838;7.214;2023-02-17T15:23:14;3.95;;;1.58;;
30398;SDS011;17195;50.838;7.214;2023-02-17T15:25:45;7.32;;;1.33;;
30398;SDS011;17195;50.838;7.214;2023-02-17T15:28:15;4.50;;;1.88;;
30398;SDS011;17195;50.838;7.214;2023-02-17T15:30:44;2.53;;;1.55;;
30398;SDS011;17195;50.838;7.214;2023-02-17T15:33:18;4.18;;;2.00;;
30398;SDS011;17195;50.838;7.214;2023-02-17T15:35:45;3.58;;;1.90;;
30398;SDS011;17195;50.838;7.214;2023-02-17T15:38:12;3.90;;;2.17;;
30398;SDS011;17195;50.838;7.214;2023-02-17T15:40:38;2.88;;;1.98;;
30398;SDS011;17195;50.838;7.214;2023-02-17T15:43:04;3.58;;;2.30;;
30398;SDS011;17195;50.838;7.214;2023-02-17T15:45:31;4.60;;;2.72;;
30398;SDS011;17195;50.838;7.214;2023-02-17T15:50:28;5.50;;;2.05;;
30398;SDS011;17195;50.838;7.214;2023-02-17T15:52:54;7.75;;;1.80;;
30398;SDS011;17195;50.838;7.214;2023-02-17T15:55:21;4.57;;;1.60;;
30398;SDS011;17195;50.838;7.214;2023-02-17T15:57:50;11.23;;;1.77;;
30398;SDS011;17195;50.838;7.214;2023-02-17T16:02:44;4.78;;;1.63;;
30398;SDS011;17195;50.838;7.214;2023-02-17T16:05:13;7.22;;;2.00;;
30398;SDS011;17195;50.838;7.214;2023-02-17T16:07:40;5.95;;;1.80;;
30398;SDS011;17195;50.838;7.214;2023-02-17T16:10:06;4.90;;;2.35;;
30398;SDS011;17195;50.838;7.214;2023-02-17T16:12:33;3.85;;;1.73;;
30398;SDS011;17195;50.838;7.214;2023-02-17T16:14:58;3.55;;;2.08;;
30398;SDS011;17195;50.838;7.214;2023-02-17T16:17:24;5.07;;;2.13;;
30398;SDS011;17195;50.838;7.214;2023-02-17T16:19:50;5.32;;;1.98;;
30398;SDS011;17195;50.838;7.214;2023-02-17T16:22:15;7.53;;;2.13;;
30398;SDS011;17195;50.838;7.214;2023-02-17T16:24:41;3.83;;;1.25;;
30398;SDS011;17195;50.838;7.214;2023-02-17T16:27:07;3.72;;;1.83;;
30398;SDS011;17195;50.838;7.214;2023-02-17T16:29:35;3.80;;;1.35;;
30398;SDS011;17195;50.838;7.214;2023-02-17T16:32:01;3.83;;;1.85;;
30398;SDS011;17195;50.838;7.214;2023-02-17T16:34:27;3.30;;;1.75;;
30398;SDS011;17195;50.838;7.214;2023-02-17T16:36:56;3.20;;;1.42;;
30398;SDS011;17195;50.838;7.214;2023-02-17T16:39:24;4.00;;;1.30;;
30398;SDS011;17195;50.838;7.214;2023-02-17T16:41:50;4.78;;;1.10;;
30398;SDS011;17195;50.838;7.214;2023-02-17T16:44:16;7.45;;;1.42;;
30398;SDS011;17195;50.838;7.214;2023-02-17T16:46:45;4.53;;;1.48;;